Terminal Aerodrome Forecast
Issued by NWS

Home | Current Version | Previous Version | Graphics & Text | Print | Product List | Glossary On
Versions: 1 2 3 4 5 6 7 8 9 10 11 12 13
000
FTUS45 KGGW 292320
TAFOLF
TAF
KOLF 292320Z 3000/3024 13009KT P6SM SKC
     FM300900 07005KT P6SM SKC WS020/17030KT
     FM301800 11011KT P6SM FEW110=

USA.gov is the U.S. government's official web portal to all federal, state and local government web resources and services.